sensor_id;sensor_type;location;lat;lon;timestamp;P1;durP1;ratioP1;P2;durP2;ratioP2
71626;SDS011;59475;52.464;13.590;2022-10-17T00:01:19;7.93;;;5.55;;
71626;SDS011;59475;52.464;13.590;2022-10-17T00:03:44;10.00;;;5.93;;
71626;SDS011;59475;52.464;13.590;2022-10-17T00:06:11;9.10;;;6.20;;
71626;SDS011;59475;52.464;13.590;2022-10-17T00:08:38;8.30;;;6.15;;
71626;SDS011;59475;52.464;13.590;2022-10-17T00:11:06;7.50;;;6.33;;
71626;SDS011;59475;52.464;13.590;2022-10-17T00:13:33;8.13;;;6.30;;
71626;SDS011;59475;52.464;13.590;2022-10-17T00:15:59;11.35;;;7.05;;
71626;SDS011;59475;52.464;13.590;2022-10-17T00:18:25;7.17;;;6.07;;
71626;SDS011;59475;52.464;13.590;2022-10-17T00:20:50;7.47;;;6.10;;
71626;SDS011;59475;52.464;13.590;2022-10-17T00:23:16;10.83;;;5.70;;
71626;SDS011;59475;52.464;13.590;2022-10-17T00:25:41;7.83;;;6.43;;
71626;SDS011;59475;52.464;13.590;2022-10-17T00:28:10;6.85;;;5.32;;
71626;SDS011;59475;52.464;13.590;2022-10-17T00:30:36;5.97;;;4.87;;
71626;SDS011;59475;52.464;13.590;2022-10-17T00:33:02;6.10;;;5.18;;
71626;SDS011;59475;52.464;13.590;2022-10-17T00:35:28;5.45;;;4.80;;
71626;SDS011;59475;52.464;13.590;2022-10-17T00:37:53;7.93;;;5.43;;
71626;SDS011;59475;52.464;13.590;2022-10-17T00:40:18;7.63;;;5.43;;
71626;SDS011;59475;52.464;13.590;2022-10-17T00:42:44;6.20;;;5.17;;
71626;SDS011;59475;52.464;13.590;2022-10-17T00:45:14;7.87;;;5.23;;
71626;SDS011;59475;52.464;13.590;2022-10-17T00:47:46;7.15;;;5.25;;
71626;SDS011;59475;52.464;13.590;2022-10-17T00:50:14;8.57;;;4.82;;
71626;SDS011;59475;52.464;13.590;2022-10-17T00:52:39;6.43;;;5.10;;
71626;SDS011;59475;52.464;13.590;2022-10-17T00:57:37;8.55;;;5.20;;
71626;SDS011;59475;52.464;13.590;2022-10-17T01:00:06;5.80;;;4.50;;
71626;SDS011;59475;52.464;13.590;2022-10-17T01:02:32;8.43;;;5.20;;
71626;SDS011;59475;52.464;13.590;2022-10-17T01:04:58;8.10;;;5.07;;
71626;SDS011;59475;52.464;13.590;2022-10-17T01:07:24;6.57;;;4.82;;
71626;SDS011;59475;52.464;13.590;2022-10-17T01:09:52;6.40;;;5.20;;
71626;SDS011;59475;52.464;13.590;2022-10-17T01:26:22;8.93;;;4.78;;
71626;SDS011;59475;52.464;13.590;2022-10-17T01:31:14;8.73;;;4.60;;
71626;SDS011;59475;52.464;13.590;2022-10-17T01:34:00;10.23;;;4.82;;
71626;SDS011;59475;52.464;13.590;2022-10-17T01:39:29;8.32;;;4.32;;
71626;SDS011;59475;52.464;13.590;2022-10-17T01:44:52;5.03;;;4.53;;
71626;SDS011;59475;52.464;13.590;2022-10-17T01:47:22;5.90;;;4.35;;
71626;SDS011;59475;52.464;13.590;2022-10-17T01:49:51;6.60;;;4.72;;
71626;SDS011;59475;52.464;13.590;2022-10-17T01:52:26;15.63;;;5.95;;
71626;SDS011;59475;52.464;13.590;2022-10-17T01:55:02;23.63;;;6.73;;
71626;SDS011;59475;52.464;13.590;2022-10-17T01:57:33;28.85;;;9.35;;
71626;SDS011;59475;52.464;13.590;2022-10-17T02:00:03;75.10;;;15.73;;
71626;SDS011;59475;52.464;13.590;2022-10-17T02:02:32;52.00;;;13.52;;
71626;SDS011;59475;52.464;13.590;2022-10-17T02:05:00;42.25;;;10.07;;
71626;SDS011;59475;52.464;13.590;2022-10-17T02:07:28;8.30;;;5.50;;
71626;SDS011;59475;52.464;13.590;2022-10-17T02:09:53;5.88;;;4.97;;
71626;SDS011;59475;52.464;13.590;2022-10-17T02:12:26;5.50;;;4.33;;
71626;SDS011;59475;52.464;13.590;2022-10-17T02:20:24;7.13;;;4.50;;
71626;SDS011;59475;52.464;13.590;2022-10-17T02:25:42;8.00;;;4.93;;
71626;SDS011;59475;52.464;13.590;2022-10-17T02:28:20;4.50;;;3.87;;
71626;SDS011;59475;52.464;13.590;2022-10-17T02:30:56;5.15;;;4.43;;
71626;SDS011;59475;52.464;13.590;2022-10-17T02:35:57;6.30;;;4.22;;
71626;SDS011;59475;52.464;13.590;2022-10-17T02:38:27;5.35;;;4.13;;
71626;SDS011;59475;52.464;13.590;2022-10-17T02:40:54;5.90;;;4.50;;
71626;SDS011;59475;52.464;13.590;2022-10-17T02:43:20;5.40;;;4.05;;
71626;SDS011;59475;52.464;13.590;2022-10-17T02:45:46;5.25;;;4.75;;
71626;SDS011;59475;52.464;13.590;2022-10-17T02:53:54;5.47;;;4.47;;
71626;SDS011;59475;52.464;13.590;2022-10-17T02:56:45;8.07;;;5.32;;
71626;SDS011;59475;52.464;13.590;2022-10-17T02:59:15;7.20;;;4.72;;
71626;SDS011;59475;52.464;13.590;2022-10-17T03:01:42;5.90;;;4.72;;
71626;SDS011;59475;52.464;13.590;2022-10-17T03:04:10;8.20;;;4.97;;
71626;SDS011;59475;52.464;13.590;2022-10-17T03:06:37;9.40;;;4.95;;
71626;SDS011;59475;52.464;13.590;2022-10-17T03:09:03;6.88;;;4.70;;
71626;SDS011;59475;52.464;13.590;2022-10-17T03:11:29;5.27;;;4.63;;
71626;SDS011;59475;52.464;13.590;2022-10-17T03:13:54;6.30;;;4.87;;
71626;SDS011;59475;52.464;13.590;2022-10-17T03:16:20;7.65;;;5.03;;
71626;SDS011;59475;52.464;13.590;2022-10-17T03:18:45;5.53;;;4.97;;
71626;SDS011;59475;52.464;13.590;2022-10-17T03:21:11;6.27;;;4.90;;
71626;SDS011;59475;52.464;13.590;2022-10-17T03:23:36;5.60;;;5.00;;
71626;SDS011;59475;52.464;13.590;2022-10-17T03:26:05;8.30;;;5.27;;
71626;SDS011;59475;52.464;13.590;2022-10-17T03:28:31;8.60;;;5.00;;
71626;SDS011;59475;52.464;13.590;2022-10-17T03:30:56;6.00;;;5.40;;
71626;SDS011;59475;52.464;13.590;2022-10-17T03:33:21;9.47;;;4.93;;
71626;SDS011;59475;52.464;13.590;2022-10-17T03:35:47;6.40;;;5.03;;
71626;SDS011;59475;52.464;13.590;2022-10-17T03:38:12;7.77;;;5.30;;
71626;SDS011;59475;52.464;13.590;2022-10-17T03:40:37;7.30;;;5.17;;
71626;SDS011;59475;52.464;13.590;2022-10-17T03:43:03;6.73;;;5.33;;
71626;SDS011;59475;52.464;13.590;2022-10-17T03:45:28;6.18;;;5.15;;
71626;SDS011;59475;52.464;13.590;2022-10-17T03:47:53;6.00;;;5.40;;
71626;SDS011;59475;52.464;13.590;2022-10-17T03:50:19;6.20;;;5.50;;
71626;SDS011;59475;52.464;13.590;2022-10-17T03:52:47;6.03;;;5.23;;
71626;SDS011;59475;52.464;13.590;2022-10-17T03:55:13;6.57;;;4.75;;
71626;SDS011;59475;52.464;13.590;2022-10-17T03:57:39;5.60;;;4.88;;
71626;SDS011;59475;52.464;13.590;2022-10-17T04:00:04;6.20;;;4.97;;
71626;SDS011;59475;52.464;13.590;2022-10-17T04:02:30;8.35;;;5.40;;
71626;SDS011;59475;52.464;13.590;2022-10-17T04:04:56;6.13;;;5.20;;
71626;SDS011;59475;52.464;13.590;2022-10-17T04:07:21;8.23;;;5.33;;
71626;SDS011;59475;52.464;13.590;2022-10-17T04:09:46;8.27;;;5.13;;
71626;SDS011;59475;52.464;13.590;2022-10-17T04:12:12;5.90;;;5.30;;
71626;SDS011;59475;52.464;13.590;2022-10-17T04:14:37;8.10;;;5.30;;
71626;SDS011;59475;52.464;13.590;2022-10-17T04:17:02;7.80;;;6.07;;
71626;SDS011;59475;52.464;13.590;2022-10-17T04:19:28;6.87;;;5.67;;
71626;SDS011;59475;52.464;13.590;2022-10-17T04:21:53;7.83;;;5.50;;
71626;SDS011;59475;52.464;13.590;2022-10-17T04:24:19;6.20;;;5.60;;
71626;SDS011;59475;52.464;13.590;2022-10-17T04:26:44;7.50;;;6.30;;
71626;SDS011;59475;52.464;13.590;2022-10-17T04:29:09;6.70;;;5.67;;
71626;SDS011;59475;52.464;13.590;2022-10-17T04:31:35;7.20;;;6.27;;
71626;SDS011;59475;52.464;13.590;2022-10-17T04:34:00;9.33;;;5.57;;
71626;SDS011;59475;52.464;13.590;2022-10-17T04:36:25;10.00;;;6.60;;
71626;SDS011;59475;52.464;13.590;2022-10-17T04:38:51;10.37;;;6.40;;
71626;SDS011;59475;52.464;13.590;2022-10-17T04:41:17;7.47;;;6.20;;
71626;SDS011;59475;52.464;13.590;2022-10-17T04:43:43;7.47;;;6.07;;
71626;SDS011;59475;52.464;13.590;2022-10-17T04:46:09;8.70;;;6.22;;
71626;SDS011;59475;52.464;13.590;2022-10-17T04:48:36;8.45;;;6.57;;
71626;SDS011;59475;52.464;13.590;2022-10-17T04:51:03;7.13;;;5.93;;
71626;SDS011;59475;52.464;13.590;2022-10-17T04:53:31;12.52;;;6.53;;
71626;SDS011;59475;52.464;13.590;2022-10-17T04:56:00;8.88;;;6.65;;
71626;SDS011;59475;52.464;13.590;2022-10-17T04:58:28;8.77;;;6.75;;
71626;SDS011;59475;52.464;13.590;2022-10-17T05:00:54;9.02;;;7.13;;
71626;SDS011;59475;52.464;13.590;2022-10-17T05:03:20;7.80;;;6.17;;
71626;SDS011;59475;52.464;13.590;2022-10-17T05:05:45;8.77;;;5.97;;
71626;SDS011;59475;52.464;13.590;2022-10-17T05:08:11;10.18;;;6.95;;
71626;SDS011;59475;52.464;13.590;2022-10-17T05:10:37;8.37;;;6.90;;
71626;SDS011;59475;52.464;13.590;2022-10-17T05:13:04;8.30;;;7.30;;
71626;SDS011;59475;52.464;13.590;2022-10-17T05:15:29;9.80;;;7.90;;
71626;SDS011;59475;52.464;13.590;2022-10-17T05:17:55;8.88;;;6.90;;
71626;SDS011;59475;52.464;13.590;2022-10-17T05:20:21;9.47;;;7.13;;
71626;SDS011;59475;52.464;13.590;2022-10-17T05:22:47;12.10;;;6.75;;
71626;SDS011;59475;52.464;13.590;2022-10-17T05:25:12;9.27;;;7.20;;
71626;SDS011;59475;52.464;13.590;2022-10-17T05:27:38;10.20;;;7.18;;
71626;SDS011;59475;52.464;13.590;2022-10-17T05:30:03;8.07;;;6.83;;
71626;SDS011;59475;52.464;13.590;2022-10-17T05:32:30;8.80;;;6.90;;
71626;SDS011;59475;52.464;13.590;2022-10-17T05:34:55;10.30;;;6.67;;
71626;SDS011;59475;52.464;13.590;2022-10-17T05:37:21;7.80;;;6.53;;
71626;SDS011;59475;52.464;13.590;2022-10-17T05:39:46;10.75;;;7.35;;
71626;SDS011;59475;52.464;13.590;2022-10-17T05:42:11;8.03;;;7.20;;
71626;SDS011;59475;52.464;13.590;2022-10-17T05:44:37;8.37;;;6.93;;
71626;SDS011;59475;52.464;13.590;2022-10-17T05:47:03;8.70;;;6.93;;
71626;SDS011;59475;52.464;13.590;2022-10-17T05:49:29;8.77;;;7.10;;
71626;SDS011;59475;52.464;13.590;2022-10-17T05:51:54;8.97;;;7.30;;
71626;SDS011;59475;52.464;13.590;2022-10-17T05:54:20;9.95;;;6.80;;
71626;SDS011;59475;52.464;13.590;2022-10-17T05:56:45;9.10;;;7.10;;
71626;SDS011;59475;52.464;13.590;2022-10-17T05:59:15;10.13;;;6.23;;
71626;SDS011;59475;52.464;13.590;2022-10-17T06:01:41;8.52;;;6.70;;
71626;SDS011;59475;52.464;13.590;2022-10-17T06:04:06;8.83;;;7.07;;
71626;SDS011;59475;52.464;13.590;2022-10-17T06:06:31;8.37;;;6.53;;
71626;SDS011;59475;52.464;13.590;2022-10-17T06:08:56;8.20;;;6.80;;
71626;SDS011;59475;52.464;13.590;2022-10-17T06:11:22;9.90;;;7.27;;
71626;SDS011;59475;52.464;13.590;2022-10-17T06:13:47;8.57;;;6.47;;
71626;SDS011;59475;52.464;13.590;2022-10-17T06:16:13;10.03;;;7.40;;
71626;SDS011;59475;52.464;13.590;2022-10-17T06:18:38;8.90;;;7.63;;
71626;SDS011;59475;52.464;13.590;2022-10-17T06:21:05;9.68;;;7.63;;
71626;SDS011;59475;52.464;13.590;2022-10-17T06:23:32;11.98;;;8.85;;
71626;SDS011;59475;52.464;13.590;2022-10-17T06:26:01;12.97;;;9.27;;
71626;SDS011;59475;52.464;13.590;2022-10-17T06:28:27;10.90;;;8.60;;
71626;SDS011;59475;52.464;13.590;2022-10-17T06:30:53;11.40;;;8.37;;
71626;SDS011;59475;52.464;13.590;2022-10-17T06:33:19;8.80;;;7.72;;
71626;SDS011;59475;52.464;13.590;2022-10-17T06:35:51;10.47;;;7.43;;
71626;SDS011;59475;52.464;13.590;2022-10-17T06:38:18;7.53;;;6.50;;
71626;SDS011;59475;52.464;13.590;2022-10-17T06:40:43;7.97;;;6.63;;
71626;SDS011;59475;52.464;13.590;2022-10-17T06:43:08;10.07;;;6.90;;
71626;SDS011;59475;52.464;13.590;2022-10-17T06:45:34;10.40;;;6.37;;
71626;SDS011;59475;52.464;13.590;2022-10-17T06:48:00;8.93;;;6.53;;
71626;SDS011;59475;52.464;13.590;2022-10-17T06:50:26;11.23;;;7.00;;
71626;SDS011;59475;52.464;13.590;2022-10-17T06:52:51;9.00;;;6.77;;
71626;SDS011;59475;52.464;13.590;2022-10-17T06:55:17;9.37;;;6.60;;
71626;SDS011;59475;52.464;13.590;2022-10-17T06:57:42;9.00;;;6.53;;
71626;SDS011;59475;52.464;13.590;2022-10-17T07:00:07;8.60;;;6.47;;
71626;SDS011;59475;52.464;13.590;2022-10-17T07:02:33;8.35;;;6.43;;
71626;SDS011;59475;52.464;13.590;2022-10-17T07:04:59;9.30;;;6.77;;
71626;SDS011;59475;52.464;13.590;2022-10-17T07:07:24;9.53;;;6.53;;
71626;SDS011;59475;52.464;13.590;2022-10-17T07:09:50;10.40;;;7.20;;
71626;SDS011;59475;52.464;13.590;2022-10-17T07:12:15;9.20;;;6.90;;
71626;SDS011;59475;52.464;13.590;2022-10-17T07:14:41;9.00;;;6.80;;
71626;SDS011;59475;52.464;13.590;2022-10-17T07:17:06;8.77;;;6.07;;
71626;SDS011;59475;52.464;13.590;2022-10-17T07:19:31;8.50;;;5.83;;
71626;SDS011;59475;52.464;13.590;2022-10-17T07:21:57;8.87;;;6.47;;
71626;SDS011;59475;52.464;13.590;2022-10-17T07:24:22;9.13;;;6.30;;
71626;SDS011;59475;52.464;13.590;2022-10-17T07:26:47;7.97;;;5.53;;
71626;SDS011;59475;52.464;13.590;2022-10-17T07:29:13;9.53;;;5.90;;
71626;SDS011;59475;52.464;13.590;2022-10-17T07:31:38;8.03;;;6.10;;
71626;SDS011;59475;52.464;13.590;2022-10-17T07:34:03;8.82;;;5.63;;
71626;SDS011;59475;52.464;13.590;2022-10-17T07:36:29;11.83;;;7.73;;
71626;SDS011;59475;52.464;13.590;2022-10-17T07:38:54;17.10;;;7.17;;
71626;SDS011;59475;52.464;13.590;2022-10-17T07:41:20;11.17;;;5.37;;
71626;SDS011;59475;52.464;13.590;2022-10-17T07:43:45;8.03;;;5.70;;
71626;SDS011;59475;52.464;13.590;2022-10-17T07:46:10;8.47;;;5.50;;
71626;SDS011;59475;52.464;13.590;2022-10-17T07:48:36;6.40;;;5.40;;
71626;SDS011;59475;52.464;13.590;2022-10-17T07:51:05;8.03;;;5.67;;
71626;SDS011;59475;52.464;13.590;2022-10-17T07:53:33;7.68;;;5.70;;
71626;SDS011;59475;52.464;13.590;2022-10-17T07:56:02;6.38;;;4.90;;
71626;SDS011;59475;52.464;13.590;2022-10-17T07:58:28;9.10;;;5.90;;
71626;SDS011;59475;52.464;13.590;2022-10-17T08:00:55;6.72;;;5.18;;
71626;SDS011;59475;52.464;13.590;2022-10-17T08:03:24;5.87;;;4.80;;
71626;SDS011;59475;52.464;13.590;2022-10-17T08:05:50;7.25;;;4.35;;
71626;SDS011;59475;52.464;13.590;2022-10-17T08:08:15;5.87;;;4.07;;
71626;SDS011;59475;52.464;13.590;2022-10-17T08:10:40;10.20;;;4.77;;
71626;SDS011;59475;52.464;13.590;2022-10-17T08:13:06;6.00;;;4.43;;
71626;SDS011;59475;52.464;13.590;2022-10-17T08:15:31;8.37;;;5.00;;
71626;SDS011;59475;52.464;13.590;2022-10-17T08:17:57;6.17;;;4.27;;
71626;SDS011;59475;52.464;13.590;2022-10-17T08:20:22;6.05;;;4.13;;
71626;SDS011;59475;52.464;13.590;2022-10-17T08:22:50;6.43;;;3.80;;
71626;SDS011;59475;52.464;13.590;2022-10-17T08:25:16;6.32;;;4.38;;
71626;SDS011;59475;52.464;13.590;2022-10-17T08:27:42;5.67;;;3.93;;
71626;SDS011;59475;52.464;13.590;2022-10-17T08:30:07;7.73;;;4.00;;
71626;SDS011;59475;52.464;13.590;2022-10-17T08:32:33;6.18;;;3.80;;
71626;SDS011;59475;52.464;13.590;2022-10-17T08:34:58;5.40;;;3.63;;
71626;SDS011;59475;52.464;13.590;2022-10-17T08:37:23;5.70;;;4.07;;
71626;SDS011;59475;52.464;13.590;2022-10-17T08:39:49;4.10;;;3.40;;
71626;SDS011;59475;52.464;13.590;2022-10-17T08:42:30;6.93;;;3.65;;
71626;SDS011;59475;52.464;13.590;2022-10-17T08:45:29;3.97;;;3.23;;
71626;SDS011;59475;52.464;13.590;2022-10-17T08:48:08;4.18;;;3.47;;
71626;SDS011;59475;52.464;13.590;2022-10-17T08:53:30;4.40;;;3.20;;
71626;SDS011;59475;52.464;13.590;2022-10-17T08:55:57;4.50;;;3.35;;
71626;SDS011;59475;52.464;13.590;2022-10-17T08:58:28;3.47;;;2.73;;
71626;SDS011;59475;52.464;13.590;2022-10-17T09:06:01;7.20;;;3.33;;
71626;SDS011;59475;52.464;13.590;2022-10-17T09:16:48;5.80;;;3.22;;
71626;SDS011;59475;52.464;13.590;2022-10-17T09:19:34;4.05;;;3.10;;
71626;SDS011;59475;52.464;13.590;2022-10-17T09:22:14;4.63;;;3.50;;
71626;SDS011;59475;52.464;13.590;2022-10-17T09:24:45;3.65;;;3.22;;
71626;SDS011;59475;52.464;13.590;2022-10-17T09:27:37;5.00;;;3.25;;
71626;SDS011;59475;52.464;13.590;2022-10-17T09:30:21;4.53;;;3.28;;
71626;SDS011;59475;52.464;13.590;2022-10-17T09:33:10;5.40;;;3.17;;
71626;SDS011;59475;52.464;13.590;2022-10-17T09:35:40;4.30;;;3.40;;
71626;SDS011;59475;52.464;13.590;2022-10-17T09:38:17;5.03;;;3.13;;
71626;SDS011;59475;52.464;13.590;2022-10-17T09:40:45;6.68;;;2.85;;
71626;SDS011;59475;52.464;13.590;2022-10-17T09:43:18;3.42;;;2.88;;
71626;SDS011;59475;52.464;13.590;2022-10-17T09:46:09;7.43;;;3.27;;
71626;SDS011;59475;52.464;13.590;2022-10-17T09:48:47;4.68;;;3.10;;
71626;SDS011;59475;52.464;13.590;2022-10-17T09:51:17;4.95;;;3.53;;
71626;SDS011;59475;52.464;13.590;2022-10-17T09:53:54;3.75;;;2.88;;
71626;SDS011;59475;52.464;13.590;2022-10-17T09:56:23;5.37;;;3.50;;
71626;SDS011;59475;52.464;13.590;2022-10-17T09:58:49;7.28;;;3.28;;
71626;SDS011;59475;52.464;13.590;2022-10-17T10:03:45;4.57;;;3.13;;
71626;SDS011;59475;52.464;13.590;2022-10-17T10:06:13;4.20;;;3.30;;
71626;SDS011;59475;52.464;13.590;2022-10-17T10:08:49;5.60;;;3.30;;
71626;SDS011;59475;52.464;13.590;2022-10-17T10:11:25;4.60;;;3.20;;
71626;SDS011;59475;52.464;13.590;2022-10-17T10:14:12;6.32;;;3.28;;
71626;SDS011;59475;52.464;13.590;2022-10-17T10:16:47;4.88;;;3.70;;
71626;SDS011;59475;52.464;13.590;2022-10-17T10:19:18;6.25;;;3.20;;
71626;SDS011;59475;52.464;13.590;2022-10-17T10:21:54;6.22;;;3.25;;
71626;SDS011;59475;52.464;13.590;2022-10-17T10:24:39;4.27;;;2.67;;
71626;SDS011;59475;52.464;13.590;2022-10-17T10:27:05;7.70;;;2.78;;
71626;SDS011;59475;52.464;13.590;2022-10-17T10:29:39;3.80;;;3.40;;
71626;SDS011;59475;52.464;13.590;2022-10-17T10:32:06;7.72;;;3.67;;
71626;SDS011;59475;52.464;13.590;2022-10-17T10:34:35;4.63;;;2.90;;
71626;SDS011;59475;52.464;13.590;2022-10-17T10:37:03;5.07;;;3.20;;
71626;SDS011;59475;52.464;13.590;2022-10-17T10:39:51;4.82;;;3.35;;
71626;SDS011;59475;52.464;13.590;2022-10-17T10:44:52;4.68;;;3.28;;
71626;SDS011;59475;52.464;13.590;2022-10-17T10:47:22;4.13;;;3.35;;
71626;SDS011;59475;52.464;13.590;2022-10-17T10:49:50;7.45;;;3.42;;
71626;SDS011;59475;52.464;13.590;2022-10-17T10:52:43;4.85;;;3.45;;
71626;SDS011;59475;52.464;13.590;2022-10-17T10:55:16;4.57;;;2.80;;
71626;SDS011;59475;52.464;13.590;2022-10-17T10:57:54;6.30;;;3.38;;
71626;SDS011;59475;52.464;13.590;2022-10-17T11:00:25;4.95;;;3.25;;
71626;SDS011;59475;52.464;13.590;2022-10-17T11:08:51;8.40;;;3.50;;
71626;SDS011;59475;52.464;13.590;2022-10-17T11:11:15;4.43;;;2.97;;
71626;SDS011;59475;52.464;13.590;2022-10-17T11:14:04;4.95;;;3.00;;
71626;SDS011;59475;52.464;13.590;2022-10-17T11:16:48;4.80;;;3.50;;
71626;SDS011;59475;52.464;13.590;2022-10-17T11:19:20;5.40;;;3.28;;
71626;SDS011;59475;52.464;13.590;2022-10-17T11:24:59;5.22;;;3.53;;
71626;SDS011;59475;52.464;13.590;2022-10-17T11:27:30;8.55;;;3.55;;
71626;SDS011;59475;52.464;13.590;2022-10-17T11:29:55;4.75;;;3.50;;
71626;SDS011;59475;52.464;13.590;2022-10-17T11:32:42;7.07;;;3.83;;
71626;SDS011;59475;52.464;13.590;2022-10-17T11:35:24;5.00;;;3.50;;
71626;SDS011;59475;52.464;13.590;2022-10-17T11:37:57;4.47;;;4.00;;
71626;SDS011;59475;52.464;13.590;2022-10-17T11:40:30;5.68;;;3.55;;
71626;SDS011;59475;52.464;13.590;2022-10-17T11:43:04;7.70;;;3.42;;
71626;SDS011;59475;52.464;13.590;2022-10-17T11:45:39;4.60;;;3.40;;
71626;SDS011;59475;52.464;13.590;2022-10-17T11:48:23;3.97;;;2.92;;
71626;SDS011;59475;52.464;13.590;2022-10-17T11:51:09;6.93;;;3.42;;
71626;SDS011;59475;52.464;13.590;2022-10-17T11:56:35;4.85;;;3.67;;
71626;SDS011;59475;52.464;13.590;2022-10-17T12:01:47;4.10;;;3.22;;
71626;SDS011;59475;52.464;13.590;2022-10-17T12:04:30;4.68;;;3.40;;
71626;SDS011;59475;52.464;13.590;2022-10-17T12:12:50;5.60;;;3.43;;
71626;SDS011;59475;52.464;13.590;2022-10-17T12:17:44;4.23;;;3.33;;
71626;SDS011;59475;52.464;13.590;2022-10-17T12:22:45;12.07;;;3.70;;
71626;SDS011;59475;52.464;13.590;2022-10-17T12:25:21;6.28;;;3.88;;
71626;SDS011;59475;52.464;13.590;2022-10-17T12:27:50;4.75;;;3.90;;
71626;SDS011;59475;52.464;13.590;2022-10-17T12:30:28;5.20;;;4.10;;
71626;SDS011;59475;52.464;13.590;2022-10-17T12:35:26;6.82;;;3.88;;
71626;SDS011;59475;52.464;13.590;2022-10-17T12:45:43;9.83;;;4.17;;
71626;SDS011;59475;52.464;13.590;2022-10-17T12:51:04;6.20;;;3.63;;
71626;SDS011;59475;52.464;13.590;2022-10-17T12:56:18;8.75;;;3.70;;
71626;SDS011;59475;52.464;13.590;2022-10-17T12:58:46;4.20;;;3.65;;
71626;SDS011;59475;52.464;13.590;2022-10-17T13:01:21;5.53;;;4.03;;
71626;SDS011;59475;52.464;13.590;2022-10-17T13:03:50;6.72;;;3.53;;
71626;SDS011;59475;52.464;13.590;2022-10-17T13:06:27;6.22;;;4.03;;
71626;SDS011;59475;52.464;13.590;2022-10-17T13:08:57;5.15;;;4.18;;
71626;SDS011;59475;52.464;13.590;2022-10-17T13:11:27;7.30;;;4.15;;
71626;SDS011;59475;52.464;13.590;2022-10-17T13:13:56;9.20;;;4.53;;
71626;SDS011;59475;52.464;13.590;2022-10-17T13:16:32;7.03;;;3.97;;
71626;SDS011;59475;52.464;13.590;2022-10-17T13:19:11;4.72;;;4.07;;
71626;SDS011;59475;52.464;13.590;2022-10-17T13:21:38;6.60;;;3.90;;
71626;SDS011;59475;52.464;13.590;2022-10-17T13:24:20;4.47;;;3.57;;
71626;SDS011;59475;52.464;13.590;2022-10-17T13:26:47;6.38;;;3.40;;
71626;SDS011;59475;52.464;13.590;2022-10-17T13:29:13;4.23;;;3.07;;
71626;SDS011;59475;52.464;13.590;2022-10-17T13:31:40;8.15;;;3.53;;
71626;SDS011;59475;52.464;13.590;2022-10-17T13:34:17;3.90;;;3.27;;
71626;SDS011;59475;52.464;13.590;2022-10-17T13:36:49;6.32;;;3.50;;
71626;SDS011;59475;52.464;13.590;2022-10-17T13:39:19;6.72;;;3.78;;
71626;SDS011;59475;52.464;13.590;2022-10-17T13:41:46;5.43;;;3.20;;
71626;SDS011;59475;52.464;13.590;2022-10-17T13:44:13;6.83;;;4.23;;
71626;SDS011;59475;52.464;13.590;2022-10-17T13:46:42;7.47;;;3.67;;
71626;SDS011;59475;52.464;13.590;2022-10-17T13:49:09;6.10;;;3.47;;
71626;SDS011;59475;52.464;13.590;2022-10-17T13:51:41;5.60;;;3.33;;
71626;SDS011;59475;52.464;13.590;2022-10-17T13:54:18;4.68;;;3.20;;
71626;SDS011;59475;52.464;13.590;2022-10-17T13:56:56;5.77;;;3.20;;
71626;SDS011;59475;52.464;13.590;2022-10-17T13:59:23;7.50;;;3.50;;
71626;SDS011;59475;52.464;13.590;2022-10-17T14:01:51;9.68;;;4.20;;
71626;SDS011;59475;52.464;13.590;2022-10-17T14:04:18;7.07;;;3.30;;
71626;SDS011;59475;52.464;13.590;2022-10-17T14:06:44;4.37;;;2.70;;
71626;SDS011;59475;52.464;13.590;2022-10-17T14:09:24;3.42;;;2.83;;
71626;SDS011;59475;52.464;13.590;2022-10-17T14:11:57;5.55;;;3.30;;
71626;SDS011;59475;52.464;13.590;2022-10-17T14:14:25;7.55;;;3.05;;
71626;SDS011;59475;52.464;13.590;2022-10-17T14:16:52;5.60;;;2.80;;
71626;SDS011;59475;52.464;13.590;2022-10-17T14:21:48;4.82;;;2.97;;
71626;SDS011;59475;52.464;13.590;2022-10-17T14:24:39;4.15;;;2.90;;
71626;SDS011;59475;52.464;13.590;2022-10-17T14:29:50;6.10;;;3.00;;
71626;SDS011;59475;52.464;13.590;2022-10-17T14:32:17;4.70;;;3.20;;
71626;SDS011;59475;52.464;13.590;2022-10-17T14:34:43;4.22;;;2.95;;
71626;SDS011;59475;52.464;13.590;2022-10-17T14:37:19;5.60;;;3.20;;
71626;SDS011;59475;52.464;13.590;2022-10-17T14:39:49;5.85;;;3.38;;
71626;SDS011;59475;52.464;13.590;2022-10-17T14:42:16;5.13;;;3.20;;
71626;SDS011;59475;52.464;13.590;2022-10-17T14:44:49;5.60;;;2.80;;
71626;SDS011;59475;52.464;13.590;2022-10-17T14:47:19;6.63;;;3.15;;
71626;SDS011;59475;52.464;13.590;2022-10-17T14:49:50;4.93;;;2.97;;
71626;SDS011;59475;52.464;13.590;2022-10-17T14:52:25;5.00;;;2.97;;
71626;SDS011;59475;52.464;13.590;2022-10-17T14:54:52;6.03;;;3.17;;
71626;SDS011;59475;52.464;13.590;2022-10-17T14:57:25;4.53;;;3.10;;
71626;SDS011;59475;52.464;13.590;2022-10-17T14:59:56;3.72;;;3.30;;
71626;SDS011;59475;52.464;13.590;2022-10-17T15:02:22;5.82;;;3.47;;
71626;SDS011;59475;52.464;13.590;2022-10-17T15:04:49;7.15;;;3.08;;
71626;SDS011;59475;52.464;13.590;2022-10-17T15:07:15;9.20;;;3.40;;
71626;SDS011;59475;52.464;13.590;2022-10-17T15:09:41;6.25;;;3.35;;
71626;SDS011;59475;52.464;13.590;2022-10-17T15:12:11;8.23;;;2.90;;
71626;SDS011;59475;52.464;13.590;2022-10-17T15:14:39;6.03;;;3.45;;
71626;SDS011;59475;52.464;13.590;2022-10-17T15:17:08;7.30;;;3.40;;
71626;SDS011;59475;52.464;13.590;2022-10-17T15:19:37;6.53;;;3.78;;
71626;SDS011;59475;52.464;13.590;2022-10-17T15:22:02;5.07;;;3.20;;
71626;SDS011;59475;52.464;13.590;2022-10-17T15:24:27;5.93;;;3.27;;
71626;SDS011;59475;52.464;13.590;2022-10-17T15:26:52;5.47;;;3.60;;
71626;SDS011;59475;52.464;13.590;2022-10-17T15:29:18;6.18;;;3.70;;
71626;SDS011;59475;52.464;13.590;2022-10-17T15:31:44;5.53;;;3.60;;
71626;SDS011;59475;52.464;13.590;2022-10-17T15:34:09;7.33;;;3.40;;
71626;SDS011;59475;52.464;13.590;2022-10-17T15:36:37;6.45;;;3.50;;
71626;SDS011;59475;52.464;13.590;2022-10-17T15:39:04;8.23;;;3.67;;
71626;SDS011;59475;52.464;13.590;2022-10-17T15:41:30;7.63;;;3.88;;
71626;SDS011;59475;52.464;13.590;2022-10-17T15:43:56;7.18;;;3.35;;
71626;SDS011;59475;52.464;13.590;2022-10-17T15:46:25;7.10;;;3.50;;
71626;SDS011;59475;52.464;13.590;2022-10-17T15:48:53;4.45;;;3.70;;
71626;SDS011;59475;52.464;13.590;2022-10-17T15:51:19;5.88;;;4.10;;
71626;SDS011;59475;52.464;13.590;2022-10-17T15:53:45;7.20;;;4.07;;
71626;SDS011;59475;52.464;13.590;2022-10-17T15:56:18;6.97;;;4.40;;
71626;SDS011;59475;52.464;13.590;2022-10-17T15:58:50;5.32;;;3.97;;
71626;SDS011;59475;52.464;13.590;2022-10-17T16:01:26;7.33;;;3.93;;
71626;SDS011;59475;52.464;13.590;2022-10-17T16:03:53;5.57;;;3.78;;
71626;SDS011;59475;52.464;13.590;2022-10-17T16:06:20;5.45;;;4.07;;
71626;SDS011;59475;52.464;13.590;2022-10-17T16:08:46;10.17;;;3.80;;
71626;SDS011;59475;52.464;13.590;2022-10-17T16:11:21;9.43;;;4.60;;
71626;SDS011;59475;52.464;13.590;2022-10-17T16:14:04;6.65;;;4.00;;
71626;SDS011;59475;52.464;13.590;2022-10-17T16:16:31;7.22;;;4.30;;
71626;SDS011;59475;52.464;13.590;2022-10-17T16:18:56;6.40;;;4.67;;
71626;SDS011;59475;52.464;13.590;2022-10-17T16:21:23;9.43;;;4.93;;
71626;SDS011;59475;52.464;13.590;2022-10-17T16:23:50;7.13;;;4.47;;
71626;SDS011;59475;52.464;13.590;2022-10-17T16:26:16;6.35;;;4.90;;
71626;SDS011;59475;52.464;13.590;2022-10-17T16:28:44;6.73;;;5.10;;
71626;SDS011;59475;52.464;13.590;2022-10-17T16:31:20;10.48;;;4.90;;
71626;SDS011;59475;52.464;13.590;2022-10-17T16:33:48;6.22;;;4.88;;